sensor_id;sensor_type;location;lat;lon;timestamp;pressure;altitude;pressure_sealevel;temperature;humidity
4044;BME280;2036;51.578;7.108;2022-10-16T00:01:23;100341.06;;;13.79;100.00
4044;BME280;2036;51.578;7.108;2022-10-16T00:03:50;100331.50;;;13.78;100.00
4044;BME280;2036;51.578;7.108;2022-10-16T00:06:18;100329.28;;;13.73;100.00
4044;BME280;2036;51.578;7.108;2022-10-16T00:08:45;100325.28;;;13.69;100.00
4044;BME280;2036;51.578;7.108;2022-10-16T00:11:19;100332.22;;;13.70;100.00
4044;BME280;2036;51.578;7.108;2022-10-16T00:13:48;100335.97;;;13.68;100.00
4044;BME280;2036;51.578;7.108;2022-10-16T00:16:15;100338.34;;;13.61;100.00
4044;BME280;2036;51.578;7.108;2022-10-16T00:18:42;100343.06;;;13.58;100.00
4044;BME280;2036;51.578;7.108;2022-10-16T00:21:16;100340.88;;;13.53;100.00
4044;BME280;2036;51.578;7.108;2022-10-16T00:23:43;100336.56;;;13.52;100.00
4044;BME280;2036;51.578;7.108;2022-10-16T00:26:13;100344.63;;;13.51;100.00
4044;BME280;2036;51.578;7.108;2022-10-16T00:28:39;100345.16;;;13.45;100.00
4044;BME280;2036;51.578;7.108;2022-10-16T00:31:08;100334.25;;;13.40;100.00
4044;BME280;2036;51.578;7.108;2022-10-16T00:33:36;100338.66;;;13.39;100.00
4044;BME280;2036;51.578;7.108;2022-10-16T00:36:04;100342.84;;;13.42;100.00
4044;BME280;2036;51.578;7.108;2022-10-16T00:38:30;100338.78;;;13.38;100.00
4044;BME280;2036;51.578;7.108;2022-10-16T00:40:56;100343.38;;;13.36;100.00
4044;BME280;2036;51.578;7.108;2022-10-16T00:43:41;100356.56;;;13.36;100.00
4044;BME280;2036;51.578;7.108;2022-10-16T00:48:42;100353.13;;;13.26;100.00
4044;BME280;2036;51.578;7.108;2022-10-16T00:51:10;100342.28;;;13.29;100.00
4044;BME280;2036;51.578;7.108;2022-10-16T00:53:36;100355.34;;;13.30;100.00
4044;BME280;2036;51.578;7.108;2022-10-16T00:56:03;100357.56;;;13.25;100.00
4044;BME280;2036;51.578;7.108;2022-10-16T00:58:29;100359.91;;;13.28;100.00
4044;BME280;2036;51.578;7.108;2022-10-16T01:00:54;100354.22;;;13.23;100.00
4044;BME280;2036;51.578;7.108;2022-10-16T01:03:34;100346.44;;;13.22;100.00
4044;BME280;2036;51.578;7.108;2022-10-16T01:09:02;100349.22;;;13.20;100.00
4044;BME280;2036;51.578;7.108;2022-10-16T01:14:19;100349.75;;;13.24;100.00
4044;BME280;2036;51.578;7.108;2022-10-16T01:17:04;100342.56;;;13.26;100.00
4044;BME280;2036;51.578;7.108;2022-10-16T01:22:26;100357.81;;;13.32;100.00
4044;BME280;2036;51.578;7.108;2022-10-16T01:25:00;100351.44;;;13.34;100.00
4044;BME280;2036;51.578;7.108;2022-10-16T01:27:30;100343.38;;;13.36;100.00
4044;BME280;2036;51.578;7.108;2022-10-16T01:32:52;100349.34;;;13.38;100.00
4044;BME280;2036;51.578;7.108;2022-10-16T01:38:21;100342.00;;;13.41;100.00
4044;BME280;2036;51.578;7.108;2022-10-16T01:41:00;100344.06;;;13.38;100.00
4044;BME280;2036;51.578;7.108;2022-10-16T01:43:49;100344.22;;;13.36;100.00
4044;BME280;2036;51.578;7.108;2022-10-16T01:46:20;100345.88;;;13.37;100.00
4044;BME280;2036;51.578;7.108;2022-10-16T01:48:51;100337.41;;;13.34;100.00
4044;BME280;2036;51.578;7.108;2022-10-16T01:51:19;100349.75;;;13.33;100.00
4044;BME280;2036;51.578;7.108;2022-10-16T01:53:51;100347.13;;;13.33;100.00
4044;BME280;2036;51.578;7.108;2022-10-16T01:56:19;100341.47;;;13.28;100.00
4044;BME280;2036;51.578;7.108;2022-10-16T01:58:54;100339.78;;;13.27;100.00
4044;BME280;2036;51.578;7.108;2022-10-16T02:01:24;100344.22;;;13.27;100.00
4044;BME280;2036;51.578;7.108;2022-10-16T02:03:54;100346.75;;;13.28;100.00
4044;BME280;2036;51.578;7.108;2022-10-16T02:06:22;100340.91;;;13.25;100.00
4044;BME280;2036;51.578;7.108;2022-10-16T02:08:49;100351.88;;;13.20;100.00
4044;BME280;2036;51.578;7.108;2022-10-16T02:11:15;100350.91;;;13.21;100.00
4044;BME280;2036;51.578;7.108;2022-10-16T02:14:01;100347.56;;;13.19;100.00
4044;BME280;2036;51.578;7.108;2022-10-16T02:16:42;100356.56;;;13.17;100.00
4044;BME280;2036;51.578;7.108;2022-10-16T02:19:09;100361.84;;;13.17;100.00
4044;BME280;2036;51.578;7.108;2022-10-16T02:21:58;100366.28;;;13.16;100.00
4044;BME280;2036;51.578;7.108;2022-10-16T02:27:41;100366.28;;;13.16;100.00
4044;BME280;2036;51.578;7.108;2022-10-16T02:33:04;100359.19;;;13.17;100.00
4044;BME280;2036;51.578;7.108;2022-10-16T02:35:32;100368.34;;;13.22;100.00
4044;BME280;2036;51.578;7.108;2022-10-16T02:37:59;100364.09;;;13.21;100.00
4044;BME280;2036;51.578;7.108;2022-10-16T02:40:26;100369.19;;;13.23;100.00
4044;BME280;2036;51.578;7.108;2022-10-16T02:42:54;100371.69;;;13.24;100.00
4044;BME280;2036;51.578;7.108;2022-10-16T02:45:20;100364.47;;;13.26;100.00
4044;BME280;2036;51.578;7.108;2022-10-16T02:47:46;100379.31;;;13.27;100.00
4044;BME280;2036;51.578;7.108;2022-10-16T02:50:12;100365.03;;;13.30;100.00
4044;BME280;2036;51.578;7.108;2022-10-16T02:52:38;100359.75;;;13.30;100.00
4044;BME280;2036;51.578;7.108;2022-10-16T02:55:04;100369.75;;;13.26;100.00
4044;BME280;2036;51.578;7.108;2022-10-16T02:57:31;100370.31;;;13.30;100.00
4044;BME280;2036;51.578;7.108;2022-10-16T02:59:57;100363.34;;;13.29;100.00
4044;BME280;2036;51.578;7.108;2022-10-16T03:02:23;100359.75;;;13.30;100.00
4044;BME280;2036;51.578;7.108;2022-10-16T03:04:50;100351.72;;;13.31;100.00
4044;BME280;2036;51.578;7.108;2022-10-16T03:07:17;100371.84;;;13.32;100.00
4044;BME280;2036;51.578;7.108;2022-10-16T03:09:43;100369.31;;;13.31;100.00
4044;BME280;2036;51.578;7.108;2022-10-16T03:12:08;100363.09;;;13.32;100.00
4044;BME280;2036;51.578;7.108;2022-10-16T03:14:38;100372.25;;;13.37;100.00
4044;BME280;2036;51.578;7.108;2022-10-16T03:17:05;100366.81;;;13.39;100.00
4044;BME280;2036;51.578;7.108;2022-10-16T03:19:31;100377.53;;;13.37;100.00
4044;BME280;2036;51.578;7.108;2022-10-16T03:21:57;100381.69;;;13.40;100.00
4044;BME280;2036;51.578;7.108;2022-10-16T03:24:23;100378.91;;;13.41;100.00
4044;BME280;2036;51.578;7.108;2022-10-16T03:26:49;100368.63;;;13.38;100.00
4044;BME280;2036;51.578;7.108;2022-10-16T03:29:14;100378.91;;;13.41;100.00
4044;BME280;2036;51.578;7.108;2022-10-16T03:31:43;100375.31;;;13.42;100.00
4044;BME280;2036;51.578;7.108;2022-10-16T03:34:09;100377.09;;;13.42;100.00
4044;BME280;2036;51.578;7.108;2022-10-16T03:36:35;100369.88;;;13.44;100.00
4044;BME280;2036;51.578;7.108;2022-10-16T03:39:01;100370.84;;;13.43;100.00
4044;BME280;2036;51.578;7.108;2022-10-16T03:41:27;100369.03;;;13.43;100.00
4044;BME280;2036;51.578;7.108;2022-10-16T03:43:52;100364.59;;;13.44;100.00
4044;BME280;2036;51.578;7.108;2022-10-16T03:46:18;100366.25;;;13.45;100.00
4044;BME280;2036;51.578;7.108;2022-10-16T03:48:44;100366.41;;;13.43;100.00
4044;BME280;2036;51.578;7.108;2022-10-16T03:51:10;100367.09;;;13.45;100.00
4044;BME280;2036;51.578;7.108;2022-10-16T03:53:36;100356.53;;;13.45;100.00
4044;BME280;2036;51.578;7.108;2022-10-16T03:56:01;100368.09;;;13.44;100.00
4044;BME280;2036;51.578;7.108;2022-10-16T03:58:27;100370.00;;;13.52;100.00
4044;BME280;2036;51.578;7.108;2022-10-16T04:00:54;100379.03;;;13.49;100.00
4044;BME280;2036;51.578;7.108;2022-10-16T04:03:20;100387.22;;;13.46;100.00
4044;BME280;2036;51.578;7.108;2022-10-16T04:05:46;100388.31;;;13.44;100.00
4044;BME280;2036;51.578;7.108;2022-10-16T04:08:13;100398.88;;;13.44;100.00
4044;BME280;2036;51.578;7.108;2022-10-16T04:10:43;100400.66;;;13.43;100.00
4044;BME280;2036;51.578;7.108;2022-10-16T04:13:10;100394.72;;;13.41;100.00
4044;BME280;2036;51.578;7.108;2022-10-16T04:15:36;100386.13;;;13.39;100.00
4044;BME280;2036;51.578;7.108;2022-10-16T04:18:02;100395.97;;;13.37;100.00
4044;BME280;2036;51.578;7.108;2022-10-16T04:20:28;100395.81;;;13.39;100.00
4044;BME280;2036;51.578;7.108;2022-10-16T04:22:55;100402.03;;;13.38;100.00
4044;BME280;2036;51.578;7.108;2022-10-16T04:25:21;100397.50;;;13.40;100.00
4044;BME280;2036;51.578;7.108;2022-10-16T04:27:47;100409.00;;;13.39;100.00
4044;BME280;2036;51.578;7.108;2022-10-16T04:30:13;100415.09;;;13.39;100.00
4044;BME280;2036;51.578;7.108;2022-10-16T04:32:39;100419.38;;;13.40;100.00
4044;BME280;2036;51.578;7.108;2022-10-16T04:35:07;100417.75;;;13.39;100.00
4044;BME280;2036;51.578;7.108;2022-10-16T04:37:33;100415.22;;;13.38;100.00
4044;BME280;2036;51.578;7.108;2022-10-16T04:39:59;100423.13;;;13.38;100.00
4044;BME280;2036;51.578;7.108;2022-10-16T04:42:24;100413.44;;;13.38;100.00
4044;BME280;2036;51.578;7.108;2022-10-16T04:44:54;100421.34;;;13.38;100.00
4044;BME280;2036;51.578;7.108;2022-10-16T04:47:22;100426.59;;;13.38;100.00
4044;BME280;2036;51.578;7.108;2022-10-16T04:49:48;100435.34;;;13.39;100.00
4044;BME280;2036;51.578;7.108;2022-10-16T04:52:14;100433.56;;;13.39;100.00
4044;BME280;2036;51.578;7.108;2022-10-16T04:54:41;100438.69;;;13.41;100.00
4044;BME280;2036;51.578;7.108;2022-10-16T04:57:07;100437.16;;;13.38;100.00
4044;BME280;2036;51.578;7.108;2022-10-16T04:59:33;100439.94;;;13.37;100.00
4044;BME280;2036;51.578;7.108;2022-10-16T05:01:58;100441.59;;;13.38;100.00
4044;BME280;2036;51.578;7.108;2022-10-16T05:04:24;100437.16;;;13.38;100.00
4044;BME280;2036;51.578;7.108;2022-10-16T05:06:50;100429.25;;;13.38;100.00
4044;BME280;2036;51.578;7.108;2022-10-16T05:09:16;100438.81;;;13.39;100.00
4044;BME280;2036;51.578;7.108;2022-10-16T05:11:42;100446.47;;;13.42;100.00
4044;BME280;2036;51.578;7.108;2022-10-16T05:14:07;100452.44;;;13.44;100.00
4044;BME280;2036;51.578;7.108;2022-10-16T05:16:33;100453.25;;;13.45;100.00
4044;BME280;2036;51.578;7.108;2022-10-16T05:18:59;100448.81;;;13.45;100.00
4044;BME280;2036;51.578;7.108;2022-10-16T05:21:24;100451.16;;;13.48;100.00
4044;BME280;2036;51.578;7.108;2022-10-16T05:23:50;100460.88;;;13.48;100.00
4044;BME280;2036;51.578;7.108;2022-10-16T05:26:16;100459.06;;;13.48;100.00
4044;BME280;2036;51.578;7.108;2022-10-16T05:28:42;100457.13;;;13.50;100.00
4044;BME280;2036;51.578;7.108;2022-10-16T05:31:09;100459.91;;;13.49;100.00
4044;BME280;2036;51.578;7.108;2022-10-16T05:33:35;100474.91;;;13.48;100.00
4044;BME280;2036;51.578;7.108;2022-10-16T05:36:06;100471.31;;;13.49;100.00
4044;BME280;2036;51.578;7.108;2022-10-16T05:38:34;100474.47;;;13.53;100.00
4044;BME280;2036;51.578;7.108;2022-10-16T05:41:00;100472.00;;;13.51;100.00
4044;BME280;2036;51.578;7.108;2022-10-16T05:43:28;100475.44;;;13.52;100.00
4044;BME280;2036;51.578;7.108;2022-10-16T05:45:59;100484.88;;;13.54;100.00
4044;BME280;2036;51.578;7.108;2022-10-16T05:48:26;100474.47;;;13.53;100.00
4044;BME280;2036;51.578;7.108;2022-10-16T05:51:03;100484.59;;;13.57;100.00
4044;BME280;2036;51.578;7.108;2022-10-16T05:53:31;100483.66;;;13.58;100.00
4044;BME280;2036;51.578;7.108;2022-10-16T05:55:58;100483.34;;;13.61;100.00
4044;BME280;2036;51.578;7.108;2022-10-16T05:58:25;100495.56;;;13.62;100.00
4044;BME280;2036;51.578;7.108;2022-10-16T06:03:27;100497.09;;;13.65;100.00
4044;BME280;2036;51.578;7.108;2022-10-16T06:05:54;100513.88;;;13.64;100.00
4044;BME280;2036;51.578;7.108;2022-10-16T06:08:22;100519.31;;;13.62;100.00
4044;BME280;2036;51.578;7.108;2022-10-16T06:10:49;100516.53;;;13.64;100.00
4044;BME280;2036;51.578;7.108;2022-10-16T06:13:25;100518.34;;;13.63;100.00
4044;BME280;2036;51.578;7.108;2022-10-16T06:15:51;100532.50;;;13.62;100.00
4044;BME280;2036;51.578;7.108;2022-10-16T06:18:17;100531.78;;;13.60;100.00
4044;BME280;2036;51.578;7.108;2022-10-16T06:20:42;100521.25;;;13.60;100.00
4044;BME280;2036;51.578;7.108;2022-10-16T06:23:08;100530.94;;;13.60;100.00
4044;BME280;2036;51.578;7.108;2022-10-16T06:25:34;100534.69;;;13.57;100.00
4044;BME280;2036;51.578;7.108;2022-10-16T06:27:59;100536.81;;;13.63;100.00
4044;BME280;2036;51.578;7.108;2022-10-16T06:30:25;100541.25;;;13.63;100.00
4044;BME280;2036;51.578;7.108;2022-10-16T06:32:51;100537.19;;;13.68;100.00
4044;BME280;2036;51.578;7.108;2022-10-16T06:35:17;100541.50;;;13.69;100.00
4044;BME280;2036;51.578;7.108;2022-10-16T06:37:43;100542.34;;;13.70;100.00
4044;BME280;2036;51.578;7.108;2022-10-16T06:40:09;100550.13;;;13.71;100.00
4044;BME280;2036;51.578;7.108;2022-10-16T06:42:34;100554.44;;;13.73;100.00
4044;BME280;2036;51.578;7.108;2022-10-16T06:45:00;100562.75;;;13.78;100.00
4044;BME280;2036;51.578;7.108;2022-10-16T06:47:27;100560.81;;;13.80;100.00
4044;BME280;2036;51.578;7.108;2022-10-16T06:49:53;100566.78;;;13.82;100.00
4044;BME280;2036;51.578;7.108;2022-10-16T06:52:18;100566.53;;;13.85;100.00
4044;BME280;2036;51.578;7.108;2022-10-16T06:54:54;100571.22;;;13.91;100.00
4044;BME280;2036;51.578;7.108;2022-10-16T06:57:20;100578.88;;;13.94;100.00
4044;BME280;2036;51.578;7.108;2022-10-16T06:59:45;100589.13;;;13.97;100.00
4044;BME280;2036;51.578;7.108;2022-10-16T07:02:11;100594.13;;;14.00;100.00
4044;BME280;2036;51.578;7.108;2022-10-16T07:04:37;100591.22;;;14.03;100.00
4044;BME280;2036;51.578;7.108;2022-10-16T07:07:03;100604.16;;;14.06;100.00
4044;BME280;2036;51.578;7.108;2022-10-16T07:09:28;100608.31;;;14.08;100.00
4044;BME280;2036;51.578;7.108;2022-10-16T07:11:54;100613.97;;;14.04;100.00
4044;BME280;2036;51.578;7.108;2022-10-16T07:14:21;100609.28;;;14.07;100.00
4044;BME280;2036;51.578;7.108;2022-10-16T07:16:47;100625.94;;;14.08;100.00
4044;BME280;2036;51.578;7.108;2022-10-16T07:19:14;100626.63;;;14.10;100.00
4044;BME280;2036;51.578;7.108;2022-10-16T07:21:42;100636.09;;;14.12;100.00
4044;BME280;2036;51.578;7.108;2022-10-16T07:24:16;100629.28;;;14.10;100.00
4044;BME280;2036;51.578;7.108;2022-10-16T07:26:44;100631.78;;;14.11;100.00
4044;BME280;2036;51.578;7.108;2022-10-16T07:29:18;100640.53;;;14.12;100.00
4044;BME280;2036;51.578;7.108;2022-10-16T07:31:45;100637.47;;;14.16;100.00
4044;BME280;2036;51.578;7.108;2022-10-16T07:34:13;100642.06;;;14.24;100.00
4044;BME280;2036;51.578;7.108;2022-10-16T07:36:39;100642.22;;;14.42;100.00
4044;BME280;2036;51.578;7.108;2022-10-16T07:39:05;100636.78;;;14.72;100.00
4044;BME280;2036;51.578;7.108;2022-10-16T07:41:30;100639.69;;;15.15;100.00
4044;BME280;2036;51.578;7.108;2022-10-16T07:43:59;100657.63;;;15.58;100.00
4044;BME280;2036;51.578;7.108;2022-10-16T07:46:27;100644.22;;;16.04;100.00
4044;BME280;2036;51.578;7.108;2022-10-16T07:48:53;100652.91;;;16.50;100.00
4044;BME280;2036;51.578;7.108;2022-10-16T07:51:22;100663.16;;;16.88;100.00
4044;BME280;2036;51.578;7.108;2022-10-16T07:53:49;100669.03;;;17.25;100.00
4044;BME280;2036;51.578;7.108;2022-10-16T07:56:16;100672.22;;;17.62;100.00
4044;BME280;2036;51.578;7.108;2022-10-16T07:58:43;100681.00;;;18.13;100.00
4044;BME280;2036;51.578;7.108;2022-10-16T08:01:13;100692.53;;;18.62;100.00
4044;BME280;2036;51.578;7.108;2022-10-16T08:03:43;100690.81;;;19.01;100.00
4044;BME280;2036;51.578;7.108;2022-10-16T08:06:09;100694.78;;;19.37;100.00
4044;BME280;2036;51.578;7.108;2022-10-16T08:08:34;100689.81;;;19.73;100.00
4044;BME280;2036;51.578;7.108;2022-10-16T08:11:00;100681.56;;;19.91;100.00
4044;BME280;2036;51.578;7.108;2022-10-16T08:13:30;100699.53;;;20.19;100.00
4044;BME280;2036;51.578;7.108;2022-10-16T08:15:56;100697.75;;;20.42;100.00
4044;BME280;2036;51.578;7.108;2022-10-16T08:18:22;100708.13;;;20.60;100.00
4044;BME280;2036;51.578;7.108;2022-10-16T08:20:48;100713.53;;;20.89;100.00
4044;BME280;2036;51.578;7.108;2022-10-16T08:23:20;100705.41;;;21.20;100.00
4044;BME280;2036;51.578;7.108;2022-10-16T08:25:45;100707.84;;;21.44;100.00
4044;BME280;2036;51.578;7.108;2022-10-16T08:28:11;100718.97;;;21.62;100.00
4044;BME280;2036;51.578;7.108;2022-10-16T08:30:37;100716.41;;;21.69;100.00
4044;BME280;2036;51.578;7.108;2022-10-16T08:33:03;100712.16;;;21.89;100.00
4044;BME280;2036;51.578;7.108;2022-10-16T08:35:29;100730.63;;;22.05;100.00
4044;BME280;2036;51.578;7.108;2022-10-16T08:37:55;100727.31;;;22.18;100.00
4044;BME280;2036;51.578;7.108;2022-10-16T08:40:33;100741.63;;;22.31;100.00
4044;BME280;2036;51.578;7.108;2022-10-16T08:43:25;100744.97;;;22.55;100.00
4044;BME280;2036;51.578;7.108;2022-10-16T08:46:32;100753.44;;;22.73;100.00
4044;BME280;2036;51.578;7.108;2022-10-16T08:49:02;100749.06;;;22.93;100.00
4044;BME280;2036;51.578;7.108;2022-10-16T08:51:35;100762.34;;;22.80;100.00
4044;BME280;2036;51.578;7.108;2022-10-16T08:54:04;100764.34;;;22.78;100.00
4044;BME280;2036;51.578;7.108;2022-10-16T08:56:31;100768.59;;;22.66;100.00
4044;BME280;2036;51.578;7.108;2022-10-16T08:58:58;100769.91;;;22.40;100.00
4044;BME280;2036;51.578;7.108;2022-10-16T09:01:38;100765.28;;;22.28;100.00
4044;BME280;2036;51.578;7.108;2022-10-16T09:07:14;100773.81;;;21.88;100.00
4044;BME280;2036;51.578;7.108;2022-10-16T09:15:20;100779.41;;;21.78;100.00
4044;BME280;2036;51.578;7.108;2022-10-16T09:21:29;100795.19;;;21.88;100.00
4044;BME280;2036;51.578;7.108;2022-10-16T09:24:12;100792.13;;;21.61;100.00
4044;BME280;2036;51.578;7.108;2022-10-16T09:26:38;100800.06;;;21.32;100.00
4044;BME280;2036;51.578;7.108;2022-10-16T09:29:04;100801.03;;;21.54;100.00
4044;BME280;2036;51.578;7.108;2022-10-16T09:31:30;100792.75;;;21.63;100.00
4044;BME280;2036;51.578;7.108;2022-10-16T09:34:01;100790.66;;;22.03;100.00
4044;BME280;2036;51.578;7.108;2022-10-16T09:36:57;100802.88;;;22.26;100.00
4044;BME280;2036;51.578;7.108;2022-10-16T09:39:24;100810.91;;;22.12;100.00
4044;BME280;2036;51.578;7.108;2022-10-16T09:41:50;100799.97;;;21.92;100.00
4044;BME280;2036;51.578;7.108;2022-10-16T09:44:30;100800.31;;;21.74;100.00
4044;BME280;2036;51.578;7.108;2022-10-16T09:47:23;100808.16;;;21.76;100.00
4044;BME280;2036;51.578;7.108;2022-10-16T09:49:56;100800.22;;;21.83;100.00
4044;BME280;2036;51.578;7.108;2022-10-16T09:52:25;100790.94;;;21.78;100.00
4044;BME280;2036;51.578;7.108;2022-10-16T09:55:01;100804.78;;;21.97;100.00
4044;BME280;2036;51.578;7.108;2022-10-16T09:57:28;100805.88;;;22.38;100.00
4044;BME280;2036;51.578;7.108;2022-10-16T09:59:57;100810.94;;;22.83;100.00
4044;BME280;2036;51.578;7.108;2022-10-16T10:02:34;100805.53;;;23.19;100.00
4044;BME280;2036;51.578;7.108;2022-10-16T10:05:02;100812.47;;;23.35;100.00
4044;BME280;2036;51.578;7.108;2022-10-16T10:07:39;100810.91;;;23.26;100.00
4044;BME280;2036;51.578;7.108;2022-10-16T10:10:28;100806.34;;;23.20;100.00
4044;BME280;2036;51.578;7.108;2022-10-16T10:12:55;100813.41;;;23.27;100.00
4044;BME280;2036;51.578;7.108;2022-10-16T10:15:22;100810.34;;;23.58;100.00
4044;BME280;2036;51.578;7.108;2022-10-16T10:17:55;100802.34;;;23.92;100.00
4044;BME280;2036;51.578;7.108;2022-10-16T10:20:39;100818.66;;;24.38;100.00
4044;BME280;2036;51.578;7.108;2022-10-16T10:23:22;100817.72;;;24.59;100.00
4044;BME280;2036;51.578;7.108;2022-10-16T10:29:03;100827.00;;;24.09;100.00
4044;BME280;2036;51.578;7.108;2022-10-16T10:32:02;100825.63;;;23.57;100.00
4044;BME280;2036;51.578;7.108;2022-10-16T10:38:20;100828.41;;;22.79;100.00
4044;BME280;2036;51.578;7.108;2022-10-16T10:41:39;100833.19;;;22.33;100.00
4044;BME280;2036;51.578;7.108;2022-10-16T10:44:01;100825.88;;;21.92;100.00
4044;BME280;2036;51.578;7.108;2022-10-16T11:04:46;100820.72;;;22.91;100.00
4044;BME280;2036;51.578;7.108;2022-10-16T11:07:33;100823.09;;;23.83;100.00
4044;BME280;2036;51.578;7.108;2022-10-16T11:10:32;100826.38;;;24.61;100.00
4044;BME280;2036;51.578;7.108;2022-10-16T11:16:27;100820.28;;;25.78;100.00
4044;BME280;2036;51.578;7.108;2022-10-16T11:19:25;100827.25;;;25.99;100.00
4044;BME280;2036;51.578;7.108;2022-10-16T11:22:39;100828.91;;;26.13;100.00
4044;BME280;2036;51.578;7.108;2022-10-16T11:25:23;100823.47;;;26.26;100.00
4044;BME280;2036;51.578;7.108;2022-10-16T11:30:30;100825.34;;;26.25;100.00
4044;BME280;2036;51.578;7.108;2022-10-16T11:41:39;100847.25;;;26.29;100.00
4044;BME280;2036;51.578;7.108;2022-10-16T11:44:53;100831.00;;;25.98;100.00
4044;BME280;2036;51.578;7.108;2022-10-16T11:47:43;100838.09;;;25.46;100.00
4044;BME280;2036;51.578;7.108;2022-10-16T11:56:04;100837.75;;;26.33;100.00
4044;BME280;2036;51.578;7.108;2022-10-16T11:59:10;100841.09;;;26.66;100.00
4044;BME280;2036;51.578;7.108;2022-10-16T12:02:08;100842.91;;;26.72;100.00
4044;BME280;2036;51.578;7.108;2022-10-16T12:04:49;100857.06;;;26.55;100.00
4044;BME280;2036;51.578;7.108;2022-10-16T12:07:22;100863.34;;;26.48;100.00
4044;BME280;2036;51.578;7.108;2022-10-16T12:09:50;100857.84;;;26.75;100.00
4044;BME280;2036;51.578;7.108;2022-10-16T12:12:39;100862.16;;;27.13;100.00
4044;BME280;2036;51.578;7.108;2022-10-16T12:15:22;100857.09;;;27.55;100.00
4044;BME280;2036;51.578;7.108;2022-10-16T12:17:49;100858.56;;;27.94;100.00
4044;BME280;2036;51.578;7.108;2022-10-16T12:23:00;100863.28;;;27.98;100.00
4044;BME280;2036;51.578;7.108;2022-10-16T12:25:38;100856.50;;;27.96;100.00
4044;BME280;2036;51.578;7.108;2022-10-16T12:30:42;100863.28;;;28.53;100.00
4044;BME280;2036;51.578;7.108;2022-10-16T12:33:33;100867.97;;;28.93;100.00
4044;BME280;2036;51.578;7.108;2022-10-16T12:36:05;100863.38;;;29.35;100.00
4044;BME280;2036;51.578;7.108;2022-10-16T12:38:46;100864.69;;;29.44;100.00
4044;BME280;2036;51.578;7.108;2022-10-16T12:41:12;100861.75;;;29.04;99.37
4044;BME280;2036;51.578;7.108;2022-10-16T12:43:49;100865.63;;;28.97;100.00
4044;BME280;2036;51.578;7.108;2022-10-16T12:48:43;100870.59;;;27.73;94.11
4044;BME280;2036;51.578;7.108;2022-10-16T12:54:24;100870.84;;;26.33;100.00
4044;BME280;2036;51.578;7.108;2022-10-16T12:57:28;100870.38;;;26.43;100.00
4044;BME280;2036;51.578;7.108;2022-10-16T13:00:10;100866.19;;;26.98;100.00
4044;BME280;2036;51.578;7.108;2022-10-16T13:17:20;100870.34;;;26.56;100.00
4044;BME280;2036;51.578;7.108;2022-10-16T13:20:31;100870.94;;;27.02;100.00
4044;BME280;2036;51.578;7.108;2022-10-16T13:23:22;100870.25;;;27.69;100.00
4044;BME280;2036;51.578;7.108;2022-10-16T13:28:48;100868.81;;;27.67;100.00
4044;BME280;2036;51.578;7.108;2022-10-16T13:31:21;100867.84;;;27.79;100.00
4044;BME280;2036;51.578;7.108;2022-10-16T13:33:53;100876.06;;;28.27;100.00
4044;BME280;2036;51.578;7.108;2022-10-16T13:36:34;100881.31;;;27.79;96.38
4044;BME280;2036;51.578;7.108;2022-10-16T13:39:20;100892.91;;;27.31;91.55
4044;BME280;2036;51.578;7.108;2022-10-16T13:44:47;100894.41;;;26.95;100.00
4044;BME280;2036;51.578;7.108;2022-10-16T13:47:25;100901.78;;;26.62;96.05
4044;BME280;2036;51.578;7.108;2022-10-16T13:52:30;100905.47;;;26.23;96.76
4044;BME280;2036;51.578;7.108;2022-10-16T13:54:56;100899.28;;;25.90;96.93
4044;BME280;2036;51.578;7.108;2022-10-16T13:57:24;100897.81;;;25.35;98.00
4044;BME280;2036;51.578;7.108;2022-10-16T13:59:51;100893.63;;;24.93;100.00
4044;BME280;2036;51.578;7.108;2022-10-16T14:04:53;100890.44;;;23.95;100.00
4044;BME280;2036;51.578;7.108;2022-10-16T14:07:32;100898.63;;;23.59;100.00
4044;BME280;2036;51.578;7.108;2022-10-16T14:10:30;100895.34;;;23.36;100.00
4044;BME280;2036;51.578;7.108;2022-10-16T14:13:07;100900.13;;;23.26;100.00
4044;BME280;2036;51.578;7.108;2022-10-16T14:15:35;100897.97;;;22.94;100.00
4044;BME280;2036;51.578;7.108;2022-10-16T14:18:02;100898.03;;;23.00;100.00
4044;BME280;2036;51.578;7.108;2022-10-16T14:20:33;100897.66;;;23.25;100.00
4044;BME280;2036;51.578;7.108;2022-10-16T14:25:46;100912.31;;;23.71;100.00
4044;BME280;2036;51.578;7.108;2022-10-16T14:28:22;100919.78;;;23.75;100.00
4044;BME280;2036;51.578;7.108;2022-10-16T14:31:00;100919.22;;;23.59;100.00
4044;BME280;2036;51.578;7.108;2022-10-16T14:36:12;100930.47;;;22.76;100.00
4044;BME280;2036;51.578;7.108;2022-10-16T14:38:42;100920.25;;;22.21;100.00
4044;BME280;2036;51.578;7.108;2022-10-16T14:41:08;100918.13;;;21.88;100.00
4044;BME280;2036;51.578;7.108;2022-10-16T14:43:37;100912.03;;;21.56;100.00
4044;BME280;2036;51.578;7.108;2022-10-16T14:46:16;100898.56;;;21.27;100.00
4044;BME280;2036;51.578;7.108;2022-10-16T14:48:50;100887.38;;;21.09;100.00
4044;BME280;2036;51.578;7.108;2022-10-16T14:51:19;100887.09;;;20.96;100.00
4044;BME280;2036;51.578;7.108;2022-10-16T14:53:46;100896.13;;;20.87;100.00
4044;BME280;2036;51.578;7.108;2022-10-16T14:56:23;100896.38;;;20.77;100.00
4044;BME280;2036;51.578;7.108;2022-10-16T14:58:51;100908.25;;;20.75;100.00
4044;BME280;2036;51.578;7.108;2022-10-16T15:01:18;100902.09;;;20.66;100.00
4044;BME280;2036;51.578;7.108;2022-10-16T15:03:44;100908.28;;;20.67;100.00
4044;BME280;2036;51.578;7.108;2022-10-16T15:06:12;100924.13;;;20.60;100.00
4044;BME280;2036;51.578;7.108;2022-10-16T15:08:38;100917.47;;;20.56;100.00
4044;BME280;2036;51.578;7.108;2022-10-16T15:11:05;100917.00;;;20.53;100.00
4044;BME280;2036;51.578;7.108;2022-10-16T15:13:33;100923.19;;;20.45;100.00
4044;BME280;2036;51.578;7.108;2022-10-16T15:15:59;100918.72;;;20.37;100.00
4044;BME280;2036;51.578;7.108;2022-10-16T15:18:24;100916.41;;;20.34;100.00
4044;BME280;2036;51.578;7.108;2022-10-16T15:20:51;100925.44;;;20.25;100.00
4044;BME280;2036;51.578;7.108;2022-10-16T15:23:22;100931.09;;;20.14;100.00
4044;BME280;2036;51.578;7.108;2022-10-16T15:25:52;100924.78;;;20.07;100.00